Terminal Aerodrome Forecast
Issued by NWS Cleveland, OH

Home | Current Version | Previous Version | Text Only | Print | Product List | Glossary On
Versions: 1 2 3 4 5 6 7 8 9 10 11 12 13 14 15 16 17 18 19
000
FTUS41 KCLE 210521
TAFCLE
TAF
KCLE 210521Z 2106/2212 00000KT P6SM SCT250
     FM211900 01007KT P6SM BKN200
     FM220200 VRB03KT P6SM BKN100
     FM220700 00000KT P6SM SCT140=

USA.gov is the U.S. government's official web portal to all federal, state and local government web resources and services.